createdAt,value
2023-05-25T00:02:17.795Z,12.93
2023-05-25T00:07:20.930Z,10.30
2023-05-25T00:12:23.905Z,15.27
2023-05-25T00:17:32.083Z,20.42
2023-05-25T00:22:35.424Z,12.20
2023-05-25T00:27:38.255Z,13.32
2023-05-25T00:32:42.639Z,15.52
2023-05-25T00:37:46.170Z,9.07
2023-05-25T00:42:48.952Z,10.57
2023-05-25T00:47:54.521Z,13.77
2023-05-25T00:52:57.462Z,11.77
2023-05-25T00:58:01.757Z,16.17
2023-05-25T01:03:11.881Z,15.32
2023-05-25T01:08:16.020Z,10.88
2023-05-25T01:13:20.067Z,11.90
2023-05-25T01:18:24.285Z,17.88
2023-05-25T01:23:32.862Z,11.25
2023-05-25T01:28:40.089Z,12.00
2023-05-25T01:33:44.571Z,11.27
2023-05-25T01:38:48.933Z,15.57
2023-05-25T01:43:53.316Z,14.97
2023-05-25T01:49:04.134Z,9.30
2023-05-25T01:54:13.290Z,11.10
2023-05-25T01:59:17.699Z,14.10
2023-05-25T02:04:22.139Z,12.10
2023-05-25T02:09:28.633Z,14.27
2023-05-25T02:14:31.776Z,11.90
2023-05-25T02:25:02.118Z,16.70
2023-05-25T02:30:28.344Z,14.07
2023-05-25T02:35:33.475Z,15.82
2023-05-25T02:40:38.170Z,10.93
2023-05-25T02:45:41.082Z,14.23
2023-05-25T02:50:43.962Z,13.02
2023-05-25T02:55:51.489Z,11.30
2023-05-25T03:01:00.282Z,18.52
2023-05-25T03:06:04.252Z,12.98
2023-05-25T03:11:09.035Z,9.25
2023-05-25T03:16:12.762Z,9.68
2023-05-25T03:21:15.652Z,13.53
2023-05-25T03:26:21.039Z,13.65
2023-05-25T03:31:25.537Z,11.90
2023-05-25T03:36:30.878Z,11.55
2023-05-25T03:41:35.110Z,13.30
2023-05-25T03:46:39.618Z,13.75
2023-05-25T03:51:42.733Z,12.37
2023-05-25T03:56:47.261Z,14.05
2023-05-25T04:01:50.198Z,16.53
2023-05-25T04:06:53.157Z,11.88
2023-05-25T04:11:57.383Z,10.20
2023-05-25T04:17:00.390Z,12.07
2023-05-25T04:22:03.391Z,11.67
2023-05-25T04:27:07.944Z,13.10
2023-05-25T04:32:14.557Z,10.00
2023-05-25T04:37:27.379Z,10.30
2023-05-25T04:42:33.486Z,7.82
2023-05-25T04:47:37.621Z,9.52
2023-05-25T04:52:40.591Z,8.63
2023-05-25T04:57:47.134Z,12.60
2023-05-25T05:02:50.376Z,10.32
2023-05-25T05:07:53.978Z,12.10
2023-05-25T05:12:58.668Z,11.02
2023-05-25T05:18:01.821Z,17.10
2023-05-25T05:23:05.142Z,14.77
2023-05-25T05:28:10.834Z,13.60
2023-05-25T05:33:16.689Z,12.45
2023-05-25T05:38:22.261Z,11.88
2023-05-25T05:43:26.542Z,14.80
2023-05-25T05:48:29.372Z,14.47
2023-05-25T05:53:32.607Z,14.53
2023-05-25T05:58:37.560Z,13.60
2023-05-25T06:03:41.486Z,12.60
2023-05-25T06:08:44.860Z,15.85
2023-05-25T06:13:49.974Z,10.57
2023-05-25T06:18:53.793Z,11.48
2023-05-25T06:23:58.156Z,12.13
2023-05-25T06:29:03.147Z,9.23
2023-05-25T06:34:06.996Z,16.35
2023-05-25T06:39:10.334Z,12.40
2023-05-25T06:44:15.133Z,7.80
2023-05-25T06:49:22.926Z,10.00
2023-05-25T06:54:26.979Z,11.97
2023-05-25T06:59:32.086Z,13.05
2023-05-25T07:04:38.690Z,10.10
2023-05-25T07:09:41.727Z,8.88
2023-05-25T07:14:48.219Z,8.40
2023-05-25T07:19:51.367Z,8.37
2023-05-25T07:24:54.445Z,10.50
2023-05-25T07:29:58.995Z,12.07
2023-05-25T07:35:02.328Z,10.73
2023-05-25T07:40:06.305Z,8.90
2023-05-25T07:45:12.503Z,12.35
2023-05-25T07:50:15.644Z,9.23
2023-05-25T07:55:20.116Z,11.98
2023-05-25T08:00:24.504Z,10.47
2023-05-25T08:05:27.387Z,9.20
2023-05-25T08:10:32.512Z,7.32
2023-05-25T08:15:36.845Z,14.02
2023-05-25T08:20:39.947Z,8.07
2023-05-25T08:25:43.074Z,12.00
2023-05-25T08:30:47.679Z,10.50
2023-05-25T08:35:52.744Z,9.93
2023-05-25T08:41:05.225Z,9.15
2023-05-25T08:46:10.502Z,13.38
2023-05-25T08:51:14.891Z,8.77
2023-05-25T08:56:20.965Z,15.05
2023-05-25T09:01:28.451Z,9.85
2023-05-25T09:06:33.960Z,10.53
2023-05-25T09:11:39.969Z,10.20
2023-05-25T09:16:45.585Z,8.32
2023-05-25T09:21:48.808Z,6.75
2023-05-25T09:26:52.315Z,9.60
2023-05-25T09:31:57.434Z,8.85
2023-05-25T09:37:00.628Z,10.55
2023-05-25T09:42:03.581Z,17.88
2023-05-25T09:47:08.290Z,12.02
2023-05-25T09:52:13.371Z,7.53
2023-05-25T09:57:17.195Z,7.37
2023-05-25T10:02:21.536Z,12.23
2023-05-25T10:07:24.541Z,8.17
2023-05-25T10:12:27.855Z,10.23
2023-05-25T10:17:33.348Z,11.40
2023-05-25T10:22:41.242Z,12.52
2023-05-25T10:27:49.060Z,6.28
2023-05-25T10:32:53.603Z,14.77
2023-05-25T10:37:59.850Z,14.80
2023-05-25T10:43:02.991Z,8.15
2023-05-25T10:48:07.604Z,11.05
2023-05-25T10:53:14.145Z,11.23
2023-05-25T10:58:18.347Z,6.22
2023-05-25T11:03:22.989Z,16.80
2023-05-25T11:08:52.514Z,9.37
2023-05-25T11:13:55.671Z,12.25
2023-05-25T11:19:01.020Z,13.53
2023-05-25T11:24:12.675Z,12.13
2023-05-25T11:29:16.841Z,9.63
2023-05-25T11:34:24.297Z,11.35
2023-05-25T11:39:27.199Z,13.87
2023-05-25T11:44:31.265Z,11.10
2023-05-25T11:49:36.095Z,12.88
2023-05-25T11:54:41.189Z,16.85
2023-05-25T11:59:49.376Z,14.07
2023-05-25T12:04:58.371Z,14.90
2023-05-25T12:10:08.060Z,15.93
2023-05-25T12:15:12.084Z,12.18
2023-05-25T12:20:17.792Z,15.90
2023-05-25T12:25:21.961Z,13.77
2023-05-25T12:30:30.002Z,24.48
2023-05-25T12:35:47.354Z,13.90
2023-05-25T12:41:05.953Z,15.13
2023-05-25T12:46:08.934Z,14.70
2023-05-25T12:51:17.492Z,12.60
2023-05-25T12:56:20.482Z,13.30
2023-05-25T13:01:23.409Z,16.83
2023-05-25T13:06:27.714Z,13.10
2023-05-25T13:11:30.593Z,15.25
2023-05-25T13:16:33.986Z,15.70
2023-05-25T13:21:38.309Z,16.38
2023-05-25T13:26:41.178Z,16.83
2023-05-25T13:31:44.134Z,16.60
2023-05-25T13:36:48.765Z,13.60
2023-05-25T13:41:51.732Z,16.77
2023-05-25T13:46:55.309Z,17.57
2023-05-25T13:51:59.750Z,14.18
2023-05-25T13:57:02.864Z,18.38
2023-05-25T14:02:06.408Z,14.82
2023-05-25T14:07:11.009Z,17.20
2023-05-25T14:12:14.477Z,18.20
2023-05-25T14:17:17.732Z,14.10
2023-05-25T14:22:22.166Z,16.65
2023-05-25T14:27:25.315Z,18.98
2023-05-25T14:32:28.283Z,17.23
2023-05-25T14:37:32.910Z,15.90
2023-05-25T14:42:35.896Z,14.32
2023-05-25T14:47:38.809Z,20.48
2023-05-25T14:52:43.237Z,15.27
2023-05-25T14:57:46.133Z,18.35
2023-05-25T15:02:49.141Z,14.70
2023-05-25T15:07:53.562Z,12.02
2023-05-25T15:12:56.549Z,17.50
2023-05-25T15:17:59.607Z,16.65
2023-05-25T15:23:04.207Z,23.52
2023-05-25T15:28:07.286Z,20.73
2023-05-25T15:33:10.659Z,22.40
2023-05-25T15:38:14.952Z,18.70
2023-05-25T15:43:18.358Z,20.63
2023-05-25T15:48:21.356Z,17.73
2023-05-25T15:53:26.008Z,22.17
2023-05-25T15:58:28.948Z,16.75
2023-05-25T16:03:31.930Z,17.77
2023-05-25T16:08:36.229Z,18.10
2023-05-25T16:13:39.251Z,24.33
2023-05-25T16:18:42.314Z,14.52
2023-05-25T16:23:46.684Z,15.05
2023-05-25T16:28:49.687Z,19.97
2023-05-25T16:33:52.596Z,14.90
2023-05-25T16:38:56.840Z,15.23
2023-05-25T16:44:00.640Z,15.75
2023-05-25T16:49:03.617Z,19.88
2023-05-25T16:54:08.118Z,20.03
2023-05-25T16:59:11.047Z,21.48
2023-05-25T17:04:14.512Z,23.45
2023-05-25T17:09:19.107Z,27.02
2023-05-25T17:14:22.121Z,13.67
2023-05-25T17:19:25.249Z,16.38
2023-05-25T17:24:29.511Z,20.90
2023-05-25T17:29:32.667Z,15.35
2023-05-25T17:34:35.635Z,15.20
2023-05-25T17:39:40.397Z,17.10
2023-05-25T17:44:43.629Z,21.48
2023-05-25T17:49:46.776Z,20.73
2023-05-25T17:54:51.468Z,15.60
2023-05-25T17:59:54.342Z,18.35
2023-05-25T18:04:57.854Z,19.98
2023-05-25T18:10:02.489Z,19.10
2023-05-25T18:15:06.472Z,20.17
2023-05-25T18:20:10.915Z,24.52
2023-05-25T18:25:15.471Z,17.92
2023-05-25T18:30:18.469Z,18.67
2023-05-25T18:35:21.548Z,20.73
2023-05-25T18:40:49.275Z,24.83
2023-05-25T18:45:52.270Z,11.73
2023-05-25T18:50:55.312Z,19.67
2023-05-25T18:55:59.678Z,19.33
2023-05-25T19:01:02.557Z,18.73
2023-05-25T19:06:06.093Z,27.53
2023-05-25T19:11:10.466Z,23.65
2023-05-25T19:16:13.495Z,15.17
2023-05-25T19:21:16.675Z,15.07
2023-05-25T19:26:21.266Z,28.27
2023-05-25T19:31:24.275Z,24.27
2023-05-25T19:36:27.296Z,19.50
2023-05-25T19:41:31.671Z,27.13
2023-05-25T19:46:36.688Z,17.65
2023-05-25T19:51:39.591Z,21.52
2023-05-25T19:56:44.284Z,18.90
2023-05-25T20:01:47.431Z,16.45
2023-05-25T20:06:50.815Z,24.23
2023-05-25T20:11:55.628Z,16.33
2023-05-25T20:16:58.645Z,18.63
2023-05-25T20:22:02.483Z,17.85
2023-05-25T20:27:07.074Z,12.20
2023-05-25T20:32:11.167Z,16.67
2023-05-25T20:37:17.266Z,26.67
2023-05-25T20:42:21.597Z,19.27
2023-05-25T20:47:24.943Z,20.42
2023-05-25T20:52:28.080Z,22.63
2023-05-25T20:57:33.137Z,21.60
2023-05-25T21:02:36.205Z,27.42
2023-05-25T21:07:39.220Z,22.88
2023-05-25T21:12:43.495Z,21.77
2023-05-25T21:17:46.502Z,18.63
2023-05-25T21:22:49.358Z,17.37
2023-05-25T21:27:55.442Z,28.73
2023-05-25T21:32:59.935Z,22.65
2023-05-25T21:38:02.905Z,20.93
2023-05-25T21:43:09.122Z,21.50
2023-05-25T21:48:12.125Z,18.20
2023-05-25T21:53:15.009Z,25.30
2023-05-25T21:58:19.729Z,15.90
2023-05-25T22:03:22.667Z,21.25
2023-05-25T22:08:25.782Z,22.83
2023-05-25T22:13:30.120Z,19.40
2023-05-25T22:18:32.979Z,20.52
2023-05-25T22:23:35.887Z,23.02
2023-05-25T22:28:40.318Z,17.88
2023-05-25T22:33:43.207Z,19.73
2023-05-25T22:38:46.818Z,19.70
2023-05-25T22:43:51.076Z,23.80
2023-05-25T22:48:53.991Z,20.20
2023-05-25T22:53:56.881Z,17.95
2023-05-25T22:59:01.148Z,21.95
2023-05-25T23:04:04.120Z,13.98
2023-05-25T23:09:07.219Z,21.10
2023-05-25T23:14:11.737Z,25.00
2023-05-25T23:19:14.653Z,24.95
2023-05-25T23:24:17.508Z,19.17
2023-05-25T23:29:21.901Z,14.80
2023-05-25T23:34:24.792Z,25.48
2023-05-25T23:39:27.653Z,16.73
2023-05-25T23:44:31.963Z,13.20
2023-05-25T23:49:35.112Z,22.90
2023-05-25T23:54:37.992Z,23.83
2023-05-25T23:59:42.227Z,20.73
